createdAt,value
2016-11-28T00:01:02.956Z,0
2016-11-28T00:02:16.509Z,0
2016-11-28T00:03:29.567Z,0
2016-11-28T00:04:42.933Z,0
2016-11-28T00:05:56.041Z,0
2016-11-28T00:07:08.595Z,0
2016-11-28T00:08:22.006Z,0
2016-11-28T00:09:37.319Z,0
2016-11-28T00:10:50.961Z,0
2016-11-28T00:12:04.276Z,0
2016-11-28T00:13:17.602Z,0
2016-11-28T00:14:30.690Z,0
2016-11-28T00:17:28.813Z,0
2016-11-28T00:18:41.824Z,0
2016-11-28T00:19:55.454Z,0
2016-11-28T00:21:08.063Z,0
2016-11-28T00:22:21.758Z,0
2016-11-28T00:23:35.417Z,0
2016-11-28T00:24:49.005Z,0
2016-11-28T00:26:02.601Z,0
2016-11-28T00:27:16.178Z,0
2016-11-28T00:28:29.279Z,0
2016-11-28T00:29:42.326Z,0
2016-11-28T00:30:55.949Z,0
2016-11-28T00:32:09.078Z,0
2016-11-28T00:33:22.648Z,0
2016-11-28T00:34:36.234Z,0
2016-11-28T00:35:49.338Z,0
2016-11-28T00:37:02.434Z,0
2016-11-28T00:38:16.062Z,0
2016-11-28T00:39:29.744Z,0
2016-11-28T00:40:43.006Z,0
2016-11-28T00:41:56.637Z,0
2016-11-28T00:43:10.500Z,0
2016-11-28T00:44:23.244Z,0
2016-11-28T00:45:37.196Z,0
2016-11-28T00:46:50.819Z,0
2016-11-28T00:48:04.401Z,0
2016-11-28T00:49:48.858Z,0
2016-11-28T00:51:01.376Z,0
2016-11-28T00:52:14.698Z,0
2016-11-28T00:53:26.984Z,0
2016-11-28T00:54:40.606Z,0
2016-11-28T00:55:54.271Z,0
2016-11-28T00:57:06.887Z,0
2016-11-28T00:58:20.508Z,0
2016-11-28T00:59:34.217Z,0
2016-11-28T01:00:47.521Z,0
2016-11-28T01:02:01.167Z,0
2016-11-28T01:03:14.245Z,0
2016-11-28T01:06:12.385Z,0
2016-11-28T01:07:25.630Z,0
2016-11-28T01:08:39.175Z,0
2016-11-28T01:09:52.277Z,0
2016-11-28T01:11:36.674Z,0
2016-11-28T01:12:50.320Z,0
2016-11-28T01:14:03.417Z,0
2016-11-28T01:15:17.007Z,0
2016-11-28T01:16:30.591Z,0
2016-11-28T01:17:43.165Z,0
2016-11-28T01:18:56.185Z,0
2016-11-28T01:20:09.234Z,0
2016-11-28T01:21:22.273Z,0
2016-11-28T01:22:35.848Z,0
2016-11-28T01:23:49.446Z,0
2016-11-28T01:25:02.998Z,0
2016-11-28T01:26:16.686Z,0
2016-11-28T01:27:30.293Z,0
2016-11-28T01:28:43.365Z,0
2016-11-28T01:29:57.006Z,0
2016-11-28T01:31:10.604Z,0
2016-11-28T01:32:24.212Z,0
2016-11-28T01:33:37.860Z,0
2016-11-28T01:34:51.482Z,0
2016-11-28T01:36:04.559Z,0
2016-11-28T01:37:18.199Z,0
2016-11-28T01:38:31.278Z,0
2016-11-28T01:39:44.868Z,0
2016-11-28T01:40:58.019Z,0
2016-11-28T01:42:11.588Z,0
2016-11-28T01:43:25.195Z,0
2016-11-28T01:45:09.943Z,0
2016-11-28T01:46:23.025Z,0
2016-11-28T01:47:36.646Z,0
2016-11-28T01:48:50.211Z,0
2016-11-28T01:50:04.265Z,0
2016-11-28T01:51:17.835Z,0
2016-11-28T01:52:30.398Z,0
2016-11-28T01:53:43.986Z,0
2016-11-28T01:54:57.064Z,0
2016-11-28T01:56:10.061Z,0
2016-11-28T01:57:23.130Z,0
2016-11-28T01:58:35.168Z,0
2016-11-28T01:59:48.825Z,0
2016-11-28T02:01:02.425Z,0
2016-11-28T02:02:14.979Z,0
2016-11-28T02:03:28.582Z,0
2016-11-28T02:04:41.643Z,0
2016-11-28T02:05:55.250Z,0
2016-11-28T02:07:08.829Z,0
2016-11-28T02:08:22.459Z,0
2016-11-28T02:09:36.043Z,0
2016-11-28T02:10:49.096Z,0
2016-11-28T02:12:02.627Z,0
2016-11-28T02:13:16.552Z,0
2016-11-28T02:14:40.401Z,0
2016-11-28T02:15:53.480Z,0
2016-11-28T02:17:06.242Z,0
2016-11-28T02:18:19.952Z,0
2016-11-28T02:19:33.554Z,0
2016-11-28T02:21:18.318Z,0
2016-11-28T02:22:31.462Z,0
2016-11-28T02:23:44.634Z,0
2016-11-28T02:24:57.710Z,0
2016-11-28T02:26:11.320Z,0
2016-11-28T02:27:24.934Z,0
2016-11-28T02:28:38.528Z,0
2016-11-28T02:29:52.125Z,0
2016-11-28T02:31:05.097Z,0
2016-11-28T02:34:02.841Z,0
2016-11-28T02:35:16.330Z,0
2016-11-28T02:36:29.928Z,0
2016-11-28T02:37:43.120Z,0
2016-11-28T02:38:56.772Z,0
2016-11-28T02:40:10.665Z,0
2016-11-28T02:41:24.364Z,0
2016-11-28T02:42:37.945Z,0
2016-11-28T02:43:51.304Z,0
2016-11-28T02:45:04.972Z,0
2016-11-28T02:46:18.659Z,0
2016-11-28T02:47:31.368Z,0
2016-11-28T02:48:44.989Z,0
2016-11-28T02:49:58.124Z,0
2016-11-28T02:51:11.685Z,0
2016-11-28T02:52:25.279Z,0
2016-11-28T02:53:38.862Z,0
2016-11-28T02:54:51.908Z,0
2016-11-28T02:56:05.484Z,0
2016-11-28T02:57:19.133Z,0
2016-11-28T02:58:32.411Z,0
2016-11-28T02:59:46.021Z,0
2016-11-28T03:00:59.127Z,0
2016-11-28T03:02:12.214Z,0
2016-11-28T03:03:25.891Z,0
2016-11-28T03:04:38.993Z,0
2016-11-28T03:05:52.593Z,0
2016-11-28T03:07:06.200Z,0
2016-11-28T03:08:19.279Z,0
2016-11-28T03:09:32.112Z,0
2016-11-28T03:10:45.209Z,0
2016-11-28T03:11:58.752Z,0
2016-11-28T03:13:11.867Z,0
2016-11-28T03:14:25.551Z,0
2016-11-28T03:15:38.670Z,0
2016-11-28T03:16:51.795Z,0
2016-11-28T03:18:05.481Z,0
2016-11-28T03:19:19.119Z,0
2016-11-28T03:20:32.712Z,0
2016-11-28T03:21:46.062Z,0
2016-11-28T03:22:59.692Z,0
2016-11-28T03:24:13.810Z,0
2016-11-28T03:25:27.383Z,0
2016-11-28T03:26:41.030Z,0
2016-11-28T03:27:54.624Z,0
2016-11-28T03:29:08.234Z,0
2016-11-28T03:30:21.070Z,0
2016-11-28T03:32:05.793Z,0
2016-11-28T03:33:18.609Z,0
2016-11-28T03:34:32.276Z,0
2016-11-28T03:35:46.002Z,0
2016-11-28T03:36:59.060Z,0
2016-11-28T03:38:12.224Z,0
2016-11-28T03:39:25.310Z,0
2016-11-28T03:40:38.431Z,0
2016-11-28T03:41:52.077Z,0
2016-11-28T03:43:36.383Z,0
2016-11-28T03:44:50.014Z,0
2016-11-28T03:46:03.638Z,0
2016-11-28T03:47:16.758Z,0
2016-11-28T03:48:29.787Z,0
2016-11-28T03:49:43.719Z,0
2016-11-28T03:50:57.358Z,0
2016-11-28T03:52:11.010Z,0
2016-11-28T03:53:24.642Z,0
2016-11-28T03:54:37.696Z,0
2016-11-28T03:55:51.374Z,0
2016-11-28T03:57:04.743Z,0
2016-11-28T03:58:18.485Z,0
2016-11-28T03:59:32.137Z,0
2016-11-28T04:00:45.740Z,0
2016-11-28T04:01:59.376Z,0
2016-11-28T04:03:11.693Z,0
2016-11-28T04:04:25.295Z,0
2016-11-28T04:05:38.893Z,0
2016-11-28T04:06:52.431Z,0
2016-11-28T04:08:05.532Z,0
2016-11-28T04:09:19.235Z,0
2016-11-28T04:10:32.288Z,0
2016-11-28T04:11:45.624Z,0
2016-11-28T04:12:59.207Z,0
2016-11-28T04:14:12.278Z,0
2016-11-28T04:15:25.937Z,0
2016-11-28T04:16:39.010Z,0
2016-11-28T04:17:52.119Z,0
2016-11-28T04:19:05.761Z,0
2016-11-28T04:20:18.876Z,0
2016-11-28T04:21:31.408Z,0
2016-11-28T04:22:44.701Z,0
2016-11-28T04:23:58.297Z,0
2016-11-28T04:25:11.906Z,0
2016-11-28T04:26:25.542Z,0
2016-11-28T04:27:39.178Z,0
2016-11-28T04:30:37.066Z,0
2016-11-28T04:31:50.668Z,0
2016-11-28T04:33:04.349Z,0
2016-11-28T04:34:17.982Z,0
2016-11-28T04:35:31.646Z,0
2016-11-28T04:36:44.746Z,0
2016-11-28T04:37:57.810Z,0
2016-11-28T04:39:11.453Z,0
2016-11-28T04:40:24.569Z,0
2016-11-28T04:41:37.599Z,0
2016-11-28T04:42:51.196Z,0
2016-11-28T04:44:04.872Z,0
2016-11-28T04:45:17.933Z,0
2016-11-28T04:46:30.513Z,0
2016-11-28T04:47:44.192Z,0
2016-11-28T04:48:57.523Z,0
2016-11-28T04:50:11.102Z,0
2016-11-28T04:51:24.743Z,0
2016-11-28T04:52:37.761Z,0
2016-11-28T04:53:50.823Z,0
2016-11-28T04:55:04.355Z,0
2016-11-28T04:56:16.592Z,0
2016-11-28T04:57:30.291Z,0
2016-11-28T04:58:43.921Z,0
2016-11-28T04:59:57.510Z,0
2016-11-28T05:01:11.130Z,0
2016-11-28T05:02:24.166Z,0
2016-11-28T05:03:37.500Z,0
2016-11-28T05:04:50.003Z,0
2016-11-28T05:06:03.111Z,0
2016-11-28T05:07:16.674Z,0
2016-11-28T05:08:30.315Z,0
2016-11-28T05:09:43.823Z,0
2016-11-28T05:10:57.498Z,0
2016-11-28T05:12:11.216Z,0
2016-11-28T05:13:24.764Z,0
2016-11-28T05:14:38.350Z,0
2016-11-28T05:15:51.917Z,0
2016-11-28T05:17:05.027Z,0
2016-11-28T05:18:18.587Z,0
2016-11-28T05:19:32.226Z,0
2016-11-28T05:20:45.866Z,0
2016-11-28T05:21:58.981Z,0
2016-11-28T05:23:12.601Z,0
2016-11-28T05:24:25.926Z,0
2016-11-28T05:25:39.065Z,0
2016-11-28T05:26:52.730Z,0
2016-11-28T05:28:06.104Z,0
2016-11-28T05:29:19.783Z,0
2016-11-28T05:30:32.891Z,0
2016-11-28T05:31:46.758Z,0
2016-11-28T05:32:59.807Z,0
2016-11-28T05:34:13.782Z,0
2016-11-28T05:35:26.856Z,0
2016-11-28T05:36:40.747Z,0
2016-11-28T05:37:54.314Z,0
2016-11-28T05:39:07.926Z,0
2016-11-28T05:40:21.585Z,0
2016-11-28T05:41:35.211Z,0
2016-11-28T05:42:48.856Z,0
2016-11-28T05:44:01.920Z,0
2016-11-28T05:45:15.482Z,0
2016-11-28T05:46:28.577Z,0
2016-11-28T05:47:41.982Z,0
2016-11-28T05:48:55.281Z,0
2016-11-28T05:50:08.462Z,0
2016-11-28T05:51:22.082Z,0
2016-11-28T05:52:35.169Z,0
2016-11-28T05:53:48.572Z,0
2016-11-28T05:55:01.656Z,0
2016-11-28T05:56:14.701Z,0
2016-11-28T05:57:28.328Z,0
2016-11-28T05:58:41.954Z,0
2016-11-28T05:59:55.583Z,0
2016-11-28T06:01:08.695Z,0
2016-11-28T06:02:21.259Z,0
2016-11-28T06:03:34.911Z,0
2016-11-28T06:04:47.991Z,0
2016-11-28T06:06:32.723Z,0
2016-11-28T06:07:46.375Z,0
2016-11-28T06:08:59.454Z,0
2016-11-28T06:10:13.074Z,0
2016-11-28T06:11:26.679Z,0
2016-11-28T06:12:40.688Z,0
2016-11-28T06:13:53.778Z,0
2016-11-28T06:15:07.510Z,0
2016-11-28T06:16:21.064Z,0
2016-11-28T06:17:34.485Z,0
2016-11-28T06:19:18.157Z,0
2016-11-28T06:20:31.801Z,0
2016-11-28T06:21:44.648Z,0
2016-11-28T06:22:58.291Z,0
2016-11-28T06:24:11.364Z,0
2016-11-28T06:25:24.387Z,0
2016-11-28T06:26:37.790Z,0
2016-11-28T06:27:51.377Z,0
2016-11-28T06:29:04.974Z,0
2016-11-28T06:30:18.582Z,0
2016-11-28T06:31:31.416Z,0
2016-11-28T06:32:44.443Z,0
2016-11-28T06:33:57.553Z,0
2016-11-28T06:35:10.627Z,0
2016-11-28T06:36:24.221Z,0
2016-11-28T06:37:37.894Z,0
2016-11-28T06:38:51.552Z,0
2016-11-28T06:40:05.175Z,0
2016-11-28T06:41:18.532Z,0
2016-11-28T06:42:32.151Z,0
2016-11-28T06:43:45.800Z,0
2016-11-28T06:44:59.447Z,0
2016-11-28T06:46:12.785Z,0
2016-11-28T06:47:26.399Z,0
2016-11-28T06:48:39.959Z,0
2016-11-28T06:49:52.995Z,0
2016-11-28T06:51:06.586Z,0
2016-11-28T06:52:20.254Z,0
2016-11-28T06:53:33.827Z,0
2016-11-28T06:54:47.430Z,0
2016-11-28T06:56:00.489Z,0
2016-11-28T06:57:14.143Z,0
2016-11-28T06:58:27.256Z,0
2016-11-28T06:59:40.858Z,0
2016-11-28T07:00:54.470Z,0
2016-11-28T07:02:08.067Z,0
2016-11-28T07:03:21.715Z,0
2016-11-28T07:04:35.399Z,0
2016-11-28T07:05:48.514Z,0
2016-11-28T07:07:02.086Z,0
2016-11-28T07:08:15.646Z,0
2016-11-28T07:09:29.275Z,0
2016-11-28T07:10:42.904Z,0
2016-11-28T07:11:56.021Z,0
2016-11-28T07:13:09.654Z,0
2016-11-28T07:14:23.197Z,0
2016-11-28T07:15:36.263Z,0
2016-11-28T07:16:49.890Z,0
2016-11-28T07:18:03.496Z,0
2016-11-28T07:19:16.374Z,0
2016-11-28T07:20:29.953Z,0
2016-11-28T07:21:43.576Z,0
2016-11-28T07:22:56.621Z,0
2016-11-28T07:24:10.568Z,0
2016-11-28T07:25:55.236Z,0
2016-11-28T07:27:08.793Z,0
2016-11-28T07:28:22.416Z,0
2016-11-28T07:29:35.998Z,0
2016-11-28T07:30:49.584Z,0
2016-11-28T07:32:33.764Z,0
2016-11-28T07:33:47.334Z,0
2016-11-28T07:35:00.937Z,0
2016-11-28T07:36:14.570Z,0
2016-11-28T07:37:28.285Z,0
2016-11-28T07:38:40.858Z,0
2016-11-28T07:39:54.468Z,0
2016-11-28T07:41:08.065Z,0
2016-11-28T07:42:21.654Z,0
2016-11-28T07:43:35.294Z,0
2016-11-28T07:44:48.337Z,0
2016-11-28T07:46:00.863Z,0
2016-11-28T07:47:14.463Z,0
2016-11-28T07:48:28.047Z,0
2016-11-28T07:49:41.575Z,0
2016-11-28T07:50:55.159Z,0
2016-11-28T07:52:08.765Z,0
2016-11-28T07:53:22.393Z,0
2016-11-28T07:54:36.031Z,0
2016-11-28T07:55:49.576Z,0
2016-11-28T07:57:03.175Z,0
2016-11-28T07:58:16.952Z,0
2016-11-28T07:59:30.599Z,0
2016-11-28T08:00:43.676Z,0
2016-11-28T08:01:56.209Z,0
2016-11-28T08:03:09.265Z,0
2016-11-28T08:04:22.595Z,0
2016-11-28T08:05:36.249Z,0
2016-11-28T08:06:49.907Z,0
2016-11-28T08:08:03.525Z,0
2016-11-28T08:09:17.125Z,0
2016-11-28T08:10:30.754Z,0
2016-11-28T08:11:44.107Z,0
2016-11-28T08:12:57.732Z,0
2016-11-28T08:14:10.739Z,0
2016-11-28T08:15:23.287Z,0
2016-11-28T08:16:36.373Z,0
2016-11-28T08:17:49.995Z,0
2016-11-28T08:19:03.647Z,0
2016-11-28T08:20:17.283Z,0
2016-11-28T08:21:30.860Z,0
2016-11-28T08:22:44.442Z,0
2016-11-28T08:23:58.067Z,0
2016-11-28T08:25:11.726Z,0
2016-11-28T08:26:25.333Z,0
2016-11-28T08:27:38.945Z,0
2016-11-28T08:28:51.450Z,0
2016-11-28T08:30:03.770Z,0
2016-11-28T08:31:17.327Z,0
2016-11-28T08:32:30.785Z,0
2016-11-28T08:33:44.118Z,0
2016-11-28T08:34:57.497Z,0
2016-11-28T08:36:10.627Z,0
2016-11-28T08:37:23.389Z,0
2016-11-28T08:38:36.444Z,0
2016-11-28T08:39:49.249Z,0
2016-11-28T08:41:01.771Z,0
2016-11-28T08:42:15.292Z,0
2016-11-28T08:43:28.886Z,0
2016-11-28T08:44:42.540Z,0
2016-11-28T08:45:55.699Z,0
2016-11-28T08:47:09.046Z,5
2016-11-28T08:48:22.630Z,5
2016-11-28T08:49:36.242Z,5
2016-11-28T08:50:49.897Z,5
2016-11-28T08:52:03.082Z,5
2016-11-28T08:53:16.936Z,5
2016-11-28T08:54:30.533Z,5
2016-11-28T08:55:44.072Z,5
2016-11-28T08:56:57.215Z,5
2016-11-28T08:58:10.857Z,5
2016-11-28T08:59:24.464Z,5
2016-11-28T09:00:38.063Z,5
2016-11-28T09:01:51.624Z,5
2016-11-28T09:03:04.966Z,5
2016-11-28T09:04:18.062Z,5
2016-11-28T09:05:31.669Z,5
2016-11-28T09:06:45.303Z,5
2016-11-28T09:07:58.654Z,5
2016-11-28T09:09:11.685Z,10
2016-11-28T09:10:24.795Z,10
2016-11-28T09:11:37.841Z,10
2016-11-28T09:12:51.402Z,10
2016-11-28T09:14:04.529Z,10
2016-11-28T09:15:17.586Z,10
2016-11-28T09:16:30.162Z,10
2016-11-28T09:17:43.939Z,10
2016-11-28T09:18:57.626Z,10
2016-11-28T09:20:11.240Z,10
2016-11-28T09:21:24.274Z,10
2016-11-28T09:22:37.884Z,10
2016-11-28T09:23:51.565Z,10
2016-11-28T09:25:05.233Z,10
2016-11-28T09:26:18.324Z,10
2016-11-28T09:27:31.931Z,10
2016-11-28T09:28:45.540Z,10
2016-11-28T09:29:59.178Z,10
2016-11-28T09:31:12.810Z,10
2016-11-28T09:32:26.342Z,10
2016-11-28T09:33:39.423Z,10
2016-11-28T09:34:53.005Z,10
2016-11-28T09:36:06.517Z,15
2016-11-28T09:37:19.868Z,15
2016-11-28T09:38:32.975Z,15
2016-11-28T09:39:46.570Z,15
2016-11-28T09:40:59.671Z,15
2016-11-28T09:42:12.806Z,15
2016-11-28T09:43:25.905Z,15
2016-11-28T09:44:39.565Z,20
2016-11-28T09:46:24.281Z,20
2016-11-28T09:47:37.869Z,20
2016-11-28T09:48:51.476Z,20
2016-11-28T09:50:05.069Z,20
2016-11-28T09:51:18.137Z,20
2016-11-28T09:52:31.438Z,20
2016-11-28T09:53:44.557Z,20
2016-11-28T09:54:57.599Z,20
2016-11-28T09:56:11.198Z,20
2016-11-28T09:57:24.813Z,20
2016-11-28T09:58:38.428Z,20
2016-11-28T09:59:52.034Z,20
2016-11-28T10:01:05.145Z,20
2016-11-28T10:02:18.722Z,20
2016-11-28T10:03:32.394Z,20
2016-11-28T10:04:46.089Z,20
2016-11-28T10:05:59.203Z,20
2016-11-28T10:07:12.751Z,20
2016-11-28T10:08:25.763Z,20
2016-11-28T10:09:39.344Z,25
2016-11-28T10:10:52.750Z,25
2016-11-28T10:12:06.354Z,25
2016-11-28T10:13:19.467Z,25
2016-11-28T10:14:33.029Z,25
2016-11-28T10:15:46.857Z,25
2016-11-28T10:17:00.155Z,25
2016-11-28T10:19:57.629Z,25
2016-11-28T10:21:11.231Z,25
2016-11-28T10:22:24.475Z,30
2016-11-28T10:23:37.760Z,30
2016-11-28T10:24:51.400Z,30
2016-11-28T10:26:04.012Z,30
2016-11-28T10:27:17.200Z,30
2016-11-28T10:28:30.257Z,30
2016-11-28T10:29:43.968Z,30
2016-11-28T10:30:57.626Z,30
2016-11-28T10:32:11.237Z,30
2016-11-28T10:33:24.873Z,30
2016-11-28T10:34:38.456Z,30
2016-11-28T10:35:52.053Z,35
2016-11-28T10:37:05.644Z,35
2016-11-28T10:38:19.001Z,35
2016-11-28T10:39:32.076Z,35
2016-11-28T10:40:45.118Z,35
2016-11-28T10:41:58.481Z,40
2016-11-28T10:43:12.081Z,40
2016-11-28T10:44:25.670Z,40
2016-11-28T10:45:39.069Z,40
2016-11-28T10:46:52.695Z,40
2016-11-28T10:48:06.047Z,40
2016-11-28T10:49:19.677Z,40
2016-11-28T10:50:33.002Z,45
2016-11-28T10:51:47.016Z,45
2016-11-28T10:53:00.629Z,45
2016-11-28T10:54:14.187Z,45
2016-11-28T10:55:27.794Z,45
2016-11-28T10:56:41.372Z,45
2016-11-28T10:57:54.960Z,45
2016-11-28T10:59:08.011Z,45
2016-11-28T11:00:21.084Z,45
2016-11-28T11:01:34.680Z,45
2016-11-28T11:03:06.765Z,50
2016-11-28T11:04:20.581Z,45
2016-11-28T11:05:34.657Z,45
2016-11-28T11:06:48.274Z,40
2016-11-28T11:07:59.994Z,45
2016-11-28T11:09:13.922Z,45
2016-11-28T11:10:27.489Z,45
2016-11-28T11:11:40.876Z,45
2016-11-28T11:12:54.453Z,45
2016-11-28T11:14:07.746Z,45
2016-11-28T11:15:21.374Z,50
2016-11-28T11:16:35.049Z,50
2016-11-28T11:17:48.625Z,55
2016-11-28T11:19:02.243Z,55
2016-11-28T11:20:15.410Z,55
2016-11-28T11:21:28.206Z,55
2016-11-28T11:22:41.866Z,55
2016-11-28T11:23:55.478Z,55
2016-11-28T11:25:08.798Z,55
2016-11-28T11:26:22.159Z,55
2016-11-28T11:27:35.790Z,55
2016-11-28T11:28:49.373Z,55
2016-11-28T11:30:02.152Z,55
2016-11-28T11:31:15.206Z,55
2016-11-28T11:32:28.527Z,55
2016-11-28T11:33:42.209Z,55
2016-11-28T11:34:55.289Z,55
2016-11-28T11:36:08.910Z,55
2016-11-28T11:37:22.523Z,60
2016-11-28T11:38:36.147Z,60
2016-11-28T11:39:49.757Z,60
2016-11-28T11:41:33.968Z,60
2016-11-28T11:42:47.555Z,60
2016-11-28T11:43:59.571Z,60
2016-11-28T11:45:12.659Z,60
2016-11-28T11:46:26.242Z,60
2016-11-28T11:47:38.257Z,60
2016-11-28T11:48:51.837Z,55
2016-11-28T11:50:05.413Z,55
2016-11-28T11:51:18.466Z,55
2016-11-28T11:52:31.031Z,55
2016-11-28T11:53:43.523Z,55
2016-11-28T11:54:57.161Z,55
2016-11-28T11:56:10.864Z,50
2016-11-28T11:57:23.899Z,50
2016-11-28T11:58:37.809Z,50
2016-11-28T11:59:50.321Z,50
2016-11-28T12:01:03.905Z,55
2016-11-28T12:02:17.164Z,55
2016-11-28T12:03:30.289Z,55
2016-11-28T12:04:44.055Z,55
2016-11-28T12:05:57.577Z,50
2016-11-28T12:07:42.304Z,50
2016-11-28T12:08:55.920Z,50
2016-11-28T12:10:09.246Z,50
2016-11-28T12:11:22.884Z,50
2016-11-28T12:12:36.521Z,50
2016-11-28T12:13:50.145Z,50
2016-11-28T12:15:02.706Z,50
2016-11-28T12:16:16.286Z,50
2016-11-28T12:17:29.630Z,50
2016-11-28T12:18:43.256Z,45
2016-11-28T12:19:56.928Z,45
2016-11-28T12:21:10.932Z,45
2016-11-28T12:22:24.017Z,50
2016-11-28T12:23:37.118Z,45
2016-11-28T12:24:50.716Z,45
2016-11-28T12:26:04.698Z,45
2016-11-28T12:27:17.253Z,45
2016-11-28T12:28:30.333Z,45
2016-11-28T12:29:43.491Z,45
2016-11-28T12:30:56.558Z,45
2016-11-28T12:32:10.285Z,45
2016-11-28T12:33:23.980Z,45
2016-11-28T12:34:37.908Z,45
2016-11-28T12:35:51.465Z,45
2016-11-28T12:37:04.749Z,40
2016-11-28T12:38:18.337Z,40
2016-11-28T12:39:31.925Z,35
2016-11-28T12:40:45.495Z,35
2016-11-28T12:41:59.107Z,30
2016-11-28T12:43:12.718Z,30
2016-11-28T12:44:25.803Z,35
2016-11-28T12:45:39.438Z,35
2016-11-28T12:46:53.113Z,35
2016-11-28T12:48:06.248Z,35
2016-11-28T12:49:19.609Z,35
2016-11-28T12:50:32.176Z,35
2016-11-28T12:52:16.372Z,35
2016-11-28T12:53:29.531Z,35
2016-11-28T12:54:42.898Z,35
2016-11-28T12:55:56.473Z,35
2016-11-28T12:57:10.064Z,40
2016-11-28T12:58:23.130Z,40
2016-11-28T12:59:36.739Z,45
2016-11-28T13:00:50.289Z,50
2016-11-28T13:02:03.842Z,50
2016-11-28T13:03:16.408Z,45
2016-11-28T13:04:29.996Z,45
2016-11-28T13:05:43.978Z,45
2016-11-28T13:06:57.522Z,40
2016-11-28T13:08:11.105Z,40
2016-11-28T13:09:24.132Z,40
2016-11-28T13:10:37.207Z,35
2016-11-28T13:11:51.304Z,35
2016-11-28T13:13:04.769Z,35
2016-11-28T13:14:18.195Z,35
2016-11-28T13:15:31.775Z,35
2016-11-28T13:16:44.869Z,30
2016-11-28T13:17:58.498Z,30
2016-11-28T13:19:12.133Z,30
2016-11-28T13:20:25.737Z,30
2016-11-28T13:21:38.796Z,30
2016-11-28T13:22:51.893Z,30
2016-11-28T13:24:05.117Z,30
2016-11-28T13:25:18.757Z,30
2016-11-28T13:26:31.609Z,30
2016-11-28T13:27:45.287Z,35
2016-11-28T13:28:58.887Z,35
2016-11-28T13:30:11.663Z,35
2016-11-28T13:31:25.277Z,35
2016-11-28T13:32:38.356Z,35
2016-11-28T13:33:52.004Z,35
2016-11-28T13:35:05.100Z,35
2016-11-28T13:36:18.672Z,35
2016-11-28T13:37:32.281Z,35
2016-11-28T13:38:45.632Z,40
2016-11-28T13:39:58.889Z,35
2016-11-28T13:41:12.236Z,35
2016-11-28T13:42:25.573Z,40
2016-11-28T13:43:38.684Z,35
2016-11-28T13:44:51.244Z,40
2016-11-28T13:46:04.743Z,40
2016-11-28T13:47:18.319Z,40
2016-11-28T13:48:31.645Z,45
2016-11-28T13:49:45.245Z,45
2016-11-28T13:51:01.634Z,45
2016-11-28T13:52:15.264Z,45
2016-11-28T13:53:28.824Z,50
2016-11-28T13:54:41.913Z,60
2016-11-28T13:55:55.502Z,80
2016-11-28T13:57:08.584Z,95
2016-11-28T13:58:22.188Z,110
2016-11-28T13:59:35.772Z,125
2016-11-28T14:00:48.898Z,145
2016-11-28T14:02:02.567Z,165
2016-11-28T14:03:15.182Z,175
2016-11-28T14:04:28.781Z,180
2016-11-28T14:05:42.356Z,185
2016-11-28T14:06:55.471Z,185
2016-11-28T14:08:09.099Z,180
2016-11-28T14:09:22.228Z,185
2016-11-28T14:10:35.306Z,190
2016-11-28T14:11:48.447Z,190
2016-11-28T14:13:02.093Z,195
2016-11-28T14:15:59.373Z,200
2016-11-28T14:17:13.047Z,210
2016-11-28T14:18:26.428Z,205
2016-11-28T14:19:40.209Z,200
2016-11-28T14:20:53.899Z,205
2016-11-28T14:22:08.125Z,205
2016-11-28T14:23:21.470Z,205
2016-11-28T14:24:34.827Z,210
2016-11-28T14:25:48.646Z,210
2016-11-28T14:27:02.019Z,215
2016-11-28T14:28:15.694Z,215
2016-11-28T14:29:31.661Z,215
2016-11-28T14:30:45.425Z,215
2016-11-28T14:31:58.346Z,220
2016-11-28T14:33:12.289Z,220
2016-11-28T14:34:26.107Z,225
2016-11-28T14:35:39.131Z,235
2016-11-28T14:36:52.748Z,200
2016-11-28T14:38:05.865Z,75
2016-11-28T14:39:21.147Z,260
2016-11-28T14:40:39.750Z,85
2016-11-28T14:41:53.772Z,240
2016-11-28T14:43:06.813Z,75
2016-11-28T14:44:20.502Z,235
2016-11-28T14:45:34.117Z,250
2016-11-28T14:46:47.978Z,265
2016-11-28T14:48:01.671Z,120
2016-11-28T14:49:15.250Z,265
2016-11-28T14:50:28.323Z,260
2016-11-28T14:51:41.443Z,130
2016-11-28T14:52:54.802Z,260
2016-11-28T14:54:08.422Z,265
2016-11-28T14:55:21.575Z,170
2016-11-28T14:56:35.286Z,90
2016-11-28T14:57:49.026Z,265
2016-11-28T14:59:02.326Z,245
2016-11-28T15:00:15.752Z,210
2016-11-28T15:01:29.412Z,85
2016-11-28T15:02:43.168Z,155
2016-11-28T15:03:56.464Z,70
2016-11-28T15:05:10.250Z,90
2016-11-28T15:06:23.110Z,235
2016-11-28T15:07:36.693Z,90
2016-11-28T15:08:49.982Z,280
2016-11-28T15:10:03.539Z,285
2016-11-28T15:11:16.602Z,105
2016-11-28T15:12:30.158Z,105
2016-11-28T15:13:44.103Z,105
2016-11-28T15:14:57.709Z,100
2016-11-28T15:16:11.277Z,70
2016-11-28T15:17:24.807Z,60
2016-11-28T15:18:37.314Z,80
2016-11-28T15:19:50.919Z,105
2016-11-28T15:21:04.799Z,290
2016-11-28T15:22:17.357Z,305
2016-11-28T15:23:30.396Z,80
2016-11-28T15:24:43.647Z,80
2016-11-28T15:25:57.200Z,100
2016-11-28T15:27:10.967Z,315
2016-11-28T15:28:24.544Z,320
2016-11-28T15:29:38.079Z,325
2016-11-28T15:30:51.678Z,315
2016-11-28T15:32:05.280Z,135
2016-11-28T15:33:18.861Z,95
2016-11-28T15:34:32.432Z,75
2016-11-28T15:35:45.958Z,170
2016-11-28T15:36:59.259Z,60
2016-11-28T15:38:12.875Z,70
2016-11-28T15:39:26.521Z,65
2016-11-28T15:40:40.152Z,80
2016-11-28T15:41:53.222Z,300
2016-11-28T15:43:06.836Z,310
2016-11-28T15:44:19.889Z,75
2016-11-28T15:45:32.468Z,65
2016-11-28T15:46:46.057Z,240
2016-11-28T15:47:59.620Z,305
2016-11-28T15:49:12.114Z,295
2016-11-28T15:50:25.104Z,295
2016-11-28T15:51:38.409Z,310
2016-11-28T15:52:52.066Z,310
2016-11-28T15:54:05.105Z,305
2016-11-28T15:55:18.677Z,80
2016-11-28T15:56:32.273Z,240
2016-11-28T15:57:45.311Z,315
2016-11-28T15:58:58.394Z,75
2016-11-28T16:00:11.430Z,305
2016-11-28T16:01:25.067Z,325
2016-11-28T16:03:09.041Z,145
2016-11-28T16:04:22.659Z,85
2016-11-28T16:05:36.284Z,80
2016-11-28T16:06:49.358Z,110
2016-11-28T16:08:02.951Z,260
2016-11-28T16:09:16.012Z,135
2016-11-28T16:10:29.111Z,135
2016-11-28T16:11:42.708Z,190
2016-11-28T16:12:56.271Z,100
2016-11-28T16:14:09.855Z,80
2016-11-28T16:15:23.427Z,75
2016-11-28T16:16:36.961Z,65
2016-11-28T16:18:05.005Z,100
2016-11-28T16:19:18.620Z,305
2016-11-28T16:21:03.276Z,310
2016-11-28T16:22:17.318Z,315
2016-11-28T16:23:31.804Z,315
2016-11-28T16:24:45.410Z,320
2016-11-28T16:25:58.943Z,160
2016-11-28T16:27:12.535Z,105
2016-11-28T16:28:26.113Z,110
2016-11-28T16:29:39.666Z,100
2016-11-28T16:30:53.336Z,100
2016-11-28T16:32:06.931Z,105
2016-11-28T16:33:19.940Z,290
2016-11-28T16:34:33.053Z,135
2016-11-28T16:36:17.476Z,305
2016-11-28T16:37:30.541Z,135
2016-11-28T16:38:43.379Z,300
2016-11-28T16:39:57.032Z,295
2016-11-28T16:41:11.111Z,300
2016-11-28T16:42:24.676Z,285
2016-11-28T16:43:38.245Z,140
2016-11-28T16:44:51.827Z,115
2016-11-28T16:46:04.757Z,285
2016-11-28T16:47:18.132Z,280
2016-11-28T16:48:31.784Z,280
2016-11-28T16:49:45.317Z,270
2016-11-28T16:50:58.885Z,270
2016-11-28T16:52:11.670Z,270
2016-11-28T16:53:25.267Z,270
2016-11-28T16:54:38.831Z,270
2016-11-28T16:55:52.452Z,270
2016-11-28T16:57:06.070Z,270
2016-11-28T16:58:19.386Z,235
2016-11-28T16:59:32.777Z,195
2016-11-28T17:00:46.376Z,175
2016-11-28T17:01:59.373Z,145
2016-11-28T17:03:12.382Z,100
2016-11-28T17:04:25.974Z,85
2016-11-28T17:05:39.193Z,80
2016-11-28T17:06:52.215Z,100
2016-11-28T17:08:05.876Z,150
2016-11-28T17:09:19.453Z,175
2016-11-28T17:10:32.189Z,160
2016-11-28T17:11:45.744Z,225
2016-11-28T17:12:59.103Z,185
2016-11-28T17:14:12.396Z,140
2016-11-28T17:15:24.959Z,155
2016-11-28T17:16:38.061Z,185
2016-11-28T17:17:51.684Z,200
2016-11-28T17:19:05.309Z,170
2016-11-28T17:20:17.834Z,165
2016-11-28T17:21:31.710Z,205
2016-11-28T17:22:45.270Z,245
2016-11-28T17:23:58.036Z,265
2016-11-28T17:25:11.151Z,180
2016-11-28T17:26:24.804Z,180
2016-11-28T17:27:37.960Z,150
2016-11-28T17:28:51.547Z,115
2016-11-28T17:30:05.111Z,145
2016-11-28T17:31:18.217Z,200
2016-11-28T17:32:31.845Z,205
2016-11-28T17:33:44.946Z,175
2016-11-28T17:34:58.040Z,155
2016-11-28T17:36:11.628Z,200
2016-11-28T17:37:24.685Z,145
2016-11-28T17:38:38.273Z,100
2016-11-28T17:39:51.897Z,75
2016-11-28T17:41:04.871Z,55
2016-11-28T17:42:18.484Z,50
2016-11-28T17:43:30.969Z,50
2016-11-28T17:44:44.570Z,50
2016-11-28T17:45:58.106Z,65
2016-11-28T17:47:11.116Z,60
2016-11-28T17:48:24.753Z,55
2016-11-28T17:49:38.271Z,55
2016-11-28T17:50:51.597Z,50
2016-11-28T17:52:04.847Z,45
2016-11-28T17:53:18.142Z,50
2016-11-28T17:54:31.703Z,50
2016-11-28T17:55:44.801Z,50
2016-11-28T17:56:57.821Z,50
2016-11-28T17:58:11.393Z,50
2016-11-28T17:59:24.437Z,50